createdAt,value
2023-04-17T00:01:16.781Z,96603.56
2023-04-17T00:03:45.549Z,96600.94
2023-04-17T00:06:17.561Z,96600.41
2023-04-17T00:08:51.251Z,96598.50
2023-04-17T00:11:30.630Z,96596.56
2023-04-17T00:14:05.714Z,96592.28
2023-04-17T00:16:33.033Z,96601.28
2023-04-17T00:19:09.974Z,96604.47
2023-04-17T00:21:40.530Z,96604.59
2023-04-17T00:24:17.020Z,96600.13
2023-04-17T00:26:43.884Z,96600.41
2023-04-17T00:29:11.497Z,96600.97
2023-04-17T00:34:38.159Z,96596.63
2023-04-17T00:37:06.114Z,96609.88
2023-04-17T00:42:48.578Z,96609.59
2023-04-17T00:45:22.916Z,96605.84
2023-04-17T00:47:57.008Z,96604.63
2023-04-17T00:50:34.146Z,96594.81
2023-04-17T00:53:02.246Z,96602.13
2023-04-17T00:55:32.584Z,96596.88
2023-04-17T00:58:03.306Z,96604.75
2023-04-17T01:00:31.045Z,96594.66
2023-04-17T01:03:07.001Z,96589.13
2023-04-17T01:05:39.663Z,96587.94
2023-04-17T01:10:51.992Z,96583.38
2023-04-17T01:13:27.487Z,96574.94
2023-04-17T01:16:03.893Z,96575.13
2023-04-17T01:18:36.957Z,96581.59
2023-04-17T01:21:11.070Z,96582.56
2023-04-17T01:23:52.430Z,96583.94
2023-04-17T01:26:24.991Z,96580.63
2023-04-17T01:29:12.792Z,96585.06
2023-04-17T01:31:54.604Z,96581.34
2023-04-17T01:34:37.298Z,96572.66
2023-04-17T01:37:09.393Z,96581.50
2023-04-17T01:39:50.172Z,96587.00
2023-04-17T01:42:25.020Z,96583.94
2023-04-17T01:44:53.467Z,96580.94
2023-04-17T01:47:25.378Z,96581.59
2023-04-17T01:49:59.006Z,96583.13
2023-04-17T01:52:26.791Z,96575.69
2023-04-17T01:54:54.666Z,96576.25
2023-04-17T01:57:22.462Z,96578.59
2023-04-17T02:00:01.950Z,96576.38
2023-04-17T02:02:36.179Z,96587.81
2023-04-17T02:05:03.524Z,96582.84
2023-04-17T02:07:40.096Z,96588.09
2023-04-17T02:10:08.634Z,96580.38
2023-04-17T02:15:42.265Z,96589.34
2023-04-17T02:18:13.234Z,96576.50
2023-04-17T02:20:40.923Z,96567.13
2023-04-17T02:23:14.743Z,96567.13
2023-04-17T02:25:57.937Z,96566.88
2023-04-17T02:28:31.411Z,96566.59
2023-04-17T02:31:04.286Z,96581.50
2023-04-17T02:33:35.049Z,96576.41
2023-04-17T02:36:34.485Z,96581.75
2023-04-17T02:39:03.091Z,96575.16
2023-04-17T02:41:36.576Z,96569.38
2023-04-17T02:44:06.842Z,96571.00
2023-04-17T02:46:36.951Z,96574.84
2023-04-17T02:49:06.726Z,96570.72
2023-04-17T02:51:52.001Z,96567.44
2023-04-17T02:54:28.846Z,96582.88
2023-04-17T02:57:04.026Z,96575.94
2023-04-17T02:59:44.002Z,96572.38
2023-04-17T03:02:21.197Z,96572.94
2023-04-17T03:04:57.788Z,96573.19
2023-04-17T03:08:04.701Z,96574.56
2023-04-17T03:10:54.217Z,96576.25
2023-04-17T03:13:22.082Z,96579.97
2023-04-17T03:15:49.740Z,96577.91
2023-04-17T03:18:18.588Z,96586.31
2023-04-17T03:20:46.056Z,96584.09
2023-04-17T03:23:13.058Z,96595.41
2023-04-17T03:25:46.201Z,96593.50
2023-04-17T03:28:13.109Z,96595.53
2023-04-17T03:30:39.947Z,96593.91
2023-04-17T03:33:06.944Z,96606.31
2023-04-17T03:35:39.212Z,96625.06
2023-04-17T03:38:22.013Z,96625.34
2023-04-17T03:43:59.094Z,96602.16
2023-04-17T03:46:48.125Z,96615.13
2023-04-17T03:52:24.129Z,96616.78
2023-04-17T03:54:51.109Z,96618.47
2023-04-17T03:57:18.189Z,96615.94
2023-04-17T03:59:45.800Z,96618.47
2023-04-17T04:02:13.068Z,96623.56
2023-04-17T04:04:40.391Z,96617.59
2023-04-17T04:07:07.314Z,96627.81
2023-04-17T04:09:36.607Z,96613.47
2023-04-17T04:12:03.395Z,96624.06
2023-04-17T04:14:30.657Z,96624.78
2023-04-17T04:16:57.566Z,96622.97
2023-04-17T04:19:24.473Z,96623.28
2023-04-17T04:21:53.855Z,96632.22
2023-04-17T04:24:20.609Z,96631.69
2023-04-17T04:26:49.912Z,96626.38
2023-04-17T04:29:17.071Z,96636.44
2023-04-17T04:31:46.794Z,96638.78
2023-04-17T04:34:13.630Z,96628.59
2023-04-17T04:36:50.081Z,96629.28
2023-04-17T04:39:20.919Z,96624.41
2023-04-17T04:41:51.547Z,96630.09
2023-04-17T04:44:19.202Z,96613.94
2023-04-17T04:46:46.879Z,96619.97
2023-04-17T04:49:17.341Z,96606.72
2023-04-17T04:51:45.055Z,96585.19
2023-04-17T04:54:22.487Z,96586.56
2023-04-17T04:56:53.219Z,96593.44
2023-04-17T04:59:21.134Z,96610.84
2023-04-17T05:01:48.076Z,96609.09
2023-04-17T05:04:33.534Z,96609.22
2023-04-17T05:07:08.556Z,96605.78
2023-04-17T05:09:46.499Z,96596.50
2023-04-17T05:12:13.553Z,96587.38
2023-04-17T05:14:41.226Z,96585.00
2023-04-17T05:17:08.797Z,96586.50
2023-04-17T05:19:35.662Z,96589.13
2023-04-17T05:22:02.401Z,96597.53
2023-04-17T05:24:32.639Z,96592.53
2023-04-17T05:27:02.232Z,96603.53
2023-04-17T05:29:29.058Z,96601.00
2023-04-17T05:31:56.062Z,96602.88
2023-04-17T05:34:22.915Z,96606.44
2023-04-17T05:36:50.139Z,96609.50
2023-04-17T05:39:18.568Z,96619.41
2023-04-17T05:41:45.829Z,96625.25
2023-04-17T05:44:15.804Z,96631.66
2023-04-17T05:46:57.041Z,96635.38
2023-04-17T05:49:23.986Z,96638.38
2023-04-17T05:51:50.829Z,96635.75
2023-04-17T05:54:17.947Z,96647.03
2023-04-17T05:56:44.710Z,96651.47
2023-04-17T05:59:11.925Z,96660.06
2023-04-17T06:01:39.702Z,96660.25
2023-04-17T06:04:12.271Z,96665.94
2023-04-17T06:06:39.331Z,96663.66
2023-04-17T06:09:16.957Z,96662.41
2023-04-17T06:11:49.565Z,96667.59
2023-04-17T06:14:16.865Z,96663.94
2023-04-17T06:16:43.921Z,96667.00
2023-04-17T06:19:11.554Z,96675.03
2023-04-17T06:21:38.376Z,96684.28
2023-04-17T06:24:48.717Z,96681.06
2023-04-17T06:27:16.798Z,96694.19
2023-04-17T06:29:46.870Z,96698.47
2023-04-17T06:32:17.671Z,96707.63
2023-04-17T06:34:58.495Z,96714.34
2023-04-17T06:37:26.631Z,96718.44
2023-04-17T06:39:56.852Z,96715.53
2023-04-17T06:42:28.034Z,96713.34
2023-04-17T06:45:49.889Z,96710.81
2023-04-17T06:48:20.639Z,96720.50
2023-04-17T06:50:51.627Z,96718.97
2023-04-17T06:53:49.257Z,96715.16
2023-04-17T06:56:30.781Z,96712.38
2023-04-17T06:59:02.906Z,96714.88
2023-04-17T07:01:40.748Z,96728.00
2023-04-17T07:04:08.855Z,96715.44
2023-04-17T07:06:37.566Z,96723.34
2023-04-17T07:09:10.531Z,96728.97
2023-04-17T07:11:39.932Z,96728.00
2023-04-17T07:14:07.358Z,96734.00
2023-04-17T07:16:43.211Z,96729.53
2023-04-17T07:19:10.819Z,96730.97
2023-04-17T07:21:59.386Z,96727.75
2023-04-17T07:24:27.836Z,96724.84
2023-04-17T07:27:01.950Z,96729.50
2023-04-17T07:29:29.344Z,96723.84
2023-04-17T07:31:57.328Z,96727.41
2023-04-17T07:34:49.512Z,96721.16
2023-04-17T07:37:16.642Z,96713.66
2023-04-17T07:39:43.657Z,96719.16
2023-04-17T07:42:16.907Z,96721.41
2023-04-17T07:44:43.898Z,96724.59
2023-04-17T07:47:11.408Z,96717.94
2023-04-17T07:49:41.278Z,96718.00
2023-04-17T07:52:08.180Z,96714.78
2023-04-17T07:54:35.239Z,96723.75
2023-04-17T07:57:11.239Z,96720.22
2023-04-17T07:59:44.092Z,96730.84
2023-04-17T08:02:13.303Z,96723.97
2023-04-17T08:04:40.891Z,96732.06
2023-04-17T08:07:13.034Z,96735.53
2023-04-17T08:09:42.560Z,96729.94
2023-04-17T08:12:10.862Z,96733.25
2023-04-17T08:14:39.184Z,96732.25
2023-04-17T08:17:07.691Z,96741.47
2023-04-17T08:19:38.726Z,96739.81
2023-04-17T08:22:06.364Z,96728.59
2023-04-17T08:24:33.666Z,96732.88
2023-04-17T08:27:06.681Z,96736.16
2023-04-17T08:29:33.737Z,96724.28
2023-04-17T08:32:14.114Z,96733.06
2023-04-17T08:34:46.249Z,96736.84
2023-04-17T08:37:13.201Z,96729.59
2023-04-17T08:39:39.970Z,96728.94
2023-04-17T08:42:15.840Z,96726.97
2023-04-17T08:44:44.552Z,96724.69
2023-04-17T08:47:13.242Z,96725.31
2023-04-17T08:49:44.073Z,96726.31
2023-04-17T08:52:11.440Z,96725.97
2023-04-17T08:54:39.187Z,96736.88
2023-04-17T08:57:08.986Z,96730.94
2023-04-17T08:59:36.025Z,96731.25
2023-04-17T09:02:08.293Z,96733.56
2023-04-17T09:04:44.162Z,96736.53
2023-04-17T09:07:13.628Z,96738.88
2023-04-17T09:10:00.845Z,96742.34
2023-04-17T09:15:18.088Z,96749.72
2023-04-17T09:17:48.972Z,96746.44
2023-04-17T09:20:17.599Z,96743.81
2023-04-17T09:22:47.703Z,96725.78
2023-04-17T09:25:29.105Z,96742.31
2023-04-17T09:31:07.140Z,96740.16
2023-04-17T09:33:37.768Z,96729.75
2023-04-17T09:36:24.088Z,96722.81
2023-04-17T09:38:57.634Z,96729.25
2023-04-17T09:44:29.079Z,96730.44
2023-04-17T09:47:13.489Z,96722.53
2023-04-17T09:50:05.125Z,96724.34
2023-04-17T09:52:32.942Z,96724.03
2023-04-17T09:55:25.260Z,96721.53
2023-04-17T09:57:55.084Z,96713.72
2023-04-17T10:00:25.912Z,96721.16
2023-04-17T10:02:53.664Z,96719.16
2023-04-17T10:05:21.228Z,96718.63
2023-04-17T10:07:55.534Z,96718.28
2023-04-17T10:10:35.124Z,96715.28
2023-04-17T10:13:04.386Z,96711.28
2023-04-17T10:15:32.717Z,96700.72
2023-04-17T10:18:19.741Z,96710.28
2023-04-17T10:20:48.552Z,96708.91
2023-04-17T10:23:41.495Z,96706.78
2023-04-17T10:26:30.290Z,96717.34
2023-04-17T10:29:02.350Z,96715.38
2023-04-17T10:32:07.472Z,96715.50
2023-04-17T10:34:39.298Z,96706.00
2023-04-17T10:37:16.953Z,96714.31
2023-04-17T10:40:01.834Z,96708.94
2023-04-17T10:42:33.622Z,96710.09
2023-04-17T10:45:07.130Z,96716.56
2023-04-17T10:47:36.995Z,96719.69
2023-04-17T10:50:09.147Z,96717.03
2023-04-17T10:52:58.319Z,96715.88
2023-04-17T10:55:30.787Z,96713.75
2023-04-17T10:58:14.411Z,96709.28
2023-04-17T11:01:02.603Z,96704.13
2023-04-17T11:03:38.250Z,96703.81
2023-04-17T11:06:13.474Z,96702.84
2023-04-17T11:08:50.662Z,96691.06
2023-04-17T11:11:35.312Z,96690.41
2023-04-17T11:14:14.194Z,96690.88
2023-04-17T11:16:43.443Z,96689.88
2023-04-17T11:19:14.996Z,96686.06
2023-04-17T11:21:51.993Z,96686.09
2023-04-17T11:24:29.094Z,96681.34
2023-04-17T11:26:59.748Z,96679.97
2023-04-17T11:29:27.397Z,96681.28
2023-04-17T11:31:56.585Z,96679.59
2023-04-17T11:34:25.559Z,96673.53
2023-04-17T11:36:57.738Z,96670.81
2023-04-17T11:39:30.017Z,96667.34
2023-04-17T11:41:57.376Z,96667.66
2023-04-17T11:44:25.196Z,96670.66
2023-04-17T11:46:52.682Z,96665.53
2023-04-17T11:49:28.848Z,96667.00
2023-04-17T11:51:59.338Z,96659.41
2023-04-17T11:54:30.215Z,96664.75
2023-04-17T11:57:12.773Z,96663.09
2023-04-17T11:59:42.218Z,96664.78
2023-04-17T12:02:10.242Z,96651.22
2023-04-17T12:04:40.095Z,96657.47
2023-04-17T12:07:08.753Z,96652.19
2023-04-17T12:09:36.831Z,96658.97
2023-04-17T12:12:08.263Z,96643.31
2023-04-17T12:18:17.121Z,96654.78
2023-04-17T12:20:44.802Z,96649.50
2023-04-17T12:23:11.991Z,96641.59
2023-04-17T12:25:39.558Z,96645.88
2023-04-17T12:28:09.476Z,96642.59
2023-04-17T12:30:40.026Z,96651.34
2023-04-17T12:33:07.523Z,96650.75
2023-04-17T12:35:34.562Z,96645.94
2023-04-17T12:38:01.865Z,96650.94
2023-04-17T12:40:28.730Z,96646.47
2023-04-17T12:42:58.127Z,96656.38
2023-04-17T12:45:28.402Z,96648.44
2023-04-17T12:47:57.453Z,96653.53
2023-04-17T12:50:25.328Z,96651.91
2023-04-17T12:52:51.960Z,96659.50
2023-04-17T12:55:21.236Z,96651.75
2023-04-17T12:57:51.164Z,96650.97
2023-04-17T13:00:18.813Z,96647.84
2023-04-17T13:02:45.930Z,96652.78
2023-04-17T13:05:13.241Z,96651.50
2023-04-17T13:07:40.043Z,96654.97
2023-04-17T13:10:07.675Z,96653.31
2023-04-17T13:12:34.517Z,96646.72
2023-04-17T13:15:01.417Z,96650.72
2023-04-17T13:17:28.283Z,96654.66
2023-04-17T13:19:55.347Z,96655.97
2023-04-17T13:22:22.326Z,96652.66
2023-04-17T13:24:49.222Z,96643.13
2023-04-17T13:27:16.781Z,96648.91
2023-04-17T13:29:44.062Z,96647.56
2023-04-17T13:32:23.418Z,96646.25
2023-04-17T13:34:53.861Z,96656.66
2023-04-17T13:37:24.711Z,96653.72
2023-04-17T13:39:51.966Z,96649.41
2023-04-17T13:42:19.614Z,96640.16
2023-04-17T13:44:46.940Z,96645.13
2023-04-17T13:47:13.884Z,96648.72
2023-04-17T13:49:41.128Z,96641.97
2023-04-17T13:52:08.082Z,96649.03
2023-04-17T13:54:35.003Z,96650.69
2023-04-17T13:57:05.060Z,96651.53
2023-04-17T13:59:32.117Z,96650.84
2023-04-17T14:02:01.624Z,96641.91
2023-04-17T14:04:32.202Z,96648.06
2023-04-17T14:06:59.688Z,96650.03
2023-04-17T14:09:27.542Z,96650.66
2023-04-17T14:11:54.294Z,96650.66
2023-04-17T14:14:21.585Z,96657.59
2023-04-17T14:16:49.894Z,96648.19
2023-04-17T14:19:20.809Z,96646.38
2023-04-17T14:22:20.339Z,96647.75
2023-04-17T14:28:15.296Z,96631.78
2023-04-17T14:30:42.605Z,96627.97
2023-04-17T14:33:17.464Z,96627.31
2023-04-17T14:35:50.598Z,96619.72
2023-04-17T14:38:18.260Z,96619.41
2023-04-17T14:40:59.819Z,96617.72
2023-04-17T14:43:27.390Z,96608.00
2023-04-17T14:45:54.439Z,96605.69
2023-04-17T14:48:24.483Z,96612.13
2023-04-17T14:50:51.765Z,96609.50
2023-04-17T14:53:22.070Z,96608.81
2023-04-17T14:55:48.924Z,96608.81
2023-04-17T14:58:16.317Z,96612.78
2023-04-17T15:00:45.893Z,96609.66
2023-04-17T15:03:13.606Z,96607.00
2023-04-17T15:05:42.225Z,96601.91
2023-04-17T15:08:09.628Z,96598.63
2023-04-17T15:10:50.746Z,96590.38
2023-04-17T15:13:18.432Z,96585.56
2023-04-17T15:15:45.103Z,96589.69
2023-04-17T15:18:12.029Z,96590.69
2023-04-17T15:20:39.215Z,96586.41
2023-04-17T15:23:09.161Z,96595.34
2023-04-17T15:25:35.984Z,96589.06
2023-04-17T15:28:03.290Z,96595.00
2023-04-17T15:30:30.366Z,96595.81
2023-04-17T15:32:57.632Z,96597.94
2023-04-17T15:35:24.846Z,96598.63
2023-04-17T15:37:51.784Z,96602.91
2023-04-17T15:40:24.961Z,96605.88
2023-04-17T15:42:58.120Z,96600.09
2023-04-17T15:45:35.049Z,96612.47
2023-04-17T15:50:55.769Z,96613.78
2023-04-17T15:53:26.969Z,96613.44
2023-04-17T15:56:02.724Z,96617.88
2023-04-17T15:58:34.030Z,96617.06
2023-04-17T16:01:42.959Z,96618.72
2023-04-17T16:04:06.521Z,96626.31
2023-04-17T16:07:20.462Z,96622.19
2023-04-17T16:13:50.430Z,96615.25
2023-04-17T16:17:12.518Z,96623.03
2023-04-17T16:22:35.969Z,96623.34
2023-04-17T16:25:20.293Z,96627.63
2023-04-17T16:27:55.307Z,96621.31
2023-04-17T16:30:27.638Z,96622.84
2023-04-17T16:32:54.560Z,96624.97
2023-04-17T16:35:43.546Z,96626.63
2023-04-17T16:38:11.274Z,96633.88
2023-04-17T16:40:41.738Z,96629.13
2023-04-17T16:43:09.583Z,96624.84
2023-04-17T16:45:42.648Z,96630.13
2023-04-17T16:48:13.333Z,96631.25
2023-04-17T16:50:41.638Z,96624.97
2023-04-17T16:53:20.161Z,96639.16
2023-04-17T16:55:48.971Z,96637.81
2023-04-17T16:58:22.658Z,96643.22
2023-04-17T17:01:01.285Z,96647.84
2023-04-17T17:03:29.012Z,96635.81
2023-04-17T17:05:58.296Z,96642.88
2023-04-17T17:08:29.635Z,96641.06
2023-04-17T17:10:57.830Z,96639.91
2023-04-17T17:13:31.824Z,96651.25
2023-04-17T17:15:59.137Z,96647.97
2023-04-17T17:18:26.369Z,96647.97
2023-04-17T17:20:59.195Z,96649.63
2023-04-17T17:23:50.373Z,96646.97
2023-04-17T17:26:26.256Z,96645.97
2023-04-17T17:29:22.855Z,96659.50
2023-04-17T17:31:58.833Z,96651.59
2023-04-17T17:34:36.573Z,96651.91
2023-04-17T17:37:07.488Z,96655.19
2023-04-17T17:39:42.074Z,96664.09
2023-04-17T17:42:12.312Z,96657.31
2023-04-17T17:44:39.985Z,96652.53
2023-04-17T17:47:11.357Z,96658.78
2023-04-17T17:50:40.517Z,96650.72
2023-04-17T17:53:03.057Z,96651.84
2023-04-17T17:56:22.751Z,96653.53
2023-04-17T17:58:54.112Z,96659.94
2023-04-17T18:01:56.303Z,96653.00
2023-04-17T18:04:34.165Z,96648.38
2023-04-17T18:07:11.615Z,96650.84
2023-04-17T18:09:42.050Z,96658.41
2023-04-17T18:12:35.284Z,96657.41
2023-04-17T18:18:59.838Z,96662.81
2023-04-17T18:22:01.365Z,96669.88
2023-04-17T18:25:37.893Z,96670.22
2023-04-17T18:31:47.923Z,96668.84
2023-04-17T18:34:15.139Z,96685.00
2023-04-17T18:40:14.218Z,96679.03
2023-04-17T18:43:12.737Z,96679.00
2023-04-17T18:45:40.142Z,96673.00
2023-04-17T18:52:03.679Z,96664.94
2023-04-17T18:57:47.768Z,96673.94
2023-04-17T19:00:51.907Z,96684.16
2023-04-17T19:06:41.765Z,96689.09
2023-04-17T19:09:30.708Z,96691.09
2023-04-17T19:12:00.880Z,96690.75
2023-04-17T19:14:48.209Z,96697.69
2023-04-17T19:17:54.687Z,96691.66
2023-04-17T19:21:21.901Z,96688.50
2023-04-17T19:24:26.022Z,96689.78
2023-04-17T19:27:59.048Z,96684.47
2023-04-17T19:30:56.619Z,96680.66
2023-04-17T19:37:07.040Z,96682.31
2023-04-17T19:40:24.393Z,96693.53
2023-04-17T19:43:18.622Z,96687.53
2023-04-17T19:45:52.851Z,96687.22
2023-04-17T19:49:01.327Z,96679.63
2023-04-17T19:51:39.098Z,96683.91
2023-04-17T19:54:12.595Z,96680.03
2023-04-17T19:57:16.649Z,96681.66
2023-04-17T20:00:07.432Z,96686.28
2023-04-17T20:02:38.577Z,96678.25
2023-04-17T20:07:57.444Z,96677.75
2023-04-17T20:10:34.647Z,96679.03
2023-04-17T20:13:19.040Z,96692.19
2023-04-17T20:16:19.939Z,96690.22
2023-04-17T20:25:01.587Z,96690.03
2023-04-17T20:27:49.583Z,96685.94
2023-04-17T20:30:44.639Z,96690.56
2023-04-17T20:33:22.900Z,96696.41
2023-04-17T20:39:06.066Z,96689.81
2023-04-17T20:41:32.245Z,96685.81
2023-04-17T20:44:19.762Z,96680.88
2023-04-17T20:46:59.184Z,96681.69
2023-04-17T20:50:06.518Z,96684.78
2023-04-17T20:53:14.105Z,96679.66
2023-04-17T20:58:54.140Z,96674.16
2023-04-17T21:04:26.005Z,96679.75
2023-04-17T21:07:20.093Z,96684.63
2023-04-17T21:10:06.196Z,96685.16
2023-04-17T21:12:54.145Z,96686.97
2023-04-17T21:15:24.145Z,96680.41
2023-04-17T21:18:13.459Z,96687.31
2023-04-17T21:21:21.135Z,96689.34
2023-04-17T21:24:04.524Z,96691.31
2023-04-17T21:29:56.800Z,96686.13
2023-04-17T21:32:36.199Z,96686.38
2023-04-17T21:35:31.220Z,96700.09
2023-04-17T21:41:09.237Z,96701.09
2023-04-17T21:46:23.772Z,96702.75
2023-04-17T21:49:02.312Z,96710.94
2023-04-17T21:51:45.351Z,96709.28
2023-04-17T21:54:37.154Z,96706.06
2023-04-17T21:57:19.028Z,96721.53
2023-04-17T21:59:59.980Z,96711.00
2023-04-17T22:02:33.775Z,96720.63
2023-04-17T22:05:13.084Z,96719.88
2023-04-17T22:07:54.424Z,96712.97
2023-04-17T22:13:31.071Z,96709.34
2023-04-17T22:19:07.280Z,96723.03
2023-04-17T22:21:41.616Z,96728.22
2023-04-17T22:24:21.723Z,96725.16
2023-04-17T22:27:15.928Z,96731.69
2023-04-17T22:30:06.635Z,96716.66
2023-04-17T22:32:41.178Z,96726.25
2023-04-17T22:35:17.860Z,96732.38
2023-04-17T22:38:02.297Z,96732.03
2023-04-17T22:40:42.340Z,96731.75
2023-04-17T22:43:12.263Z,96734.00
2023-04-17T22:46:06.186Z,96728.06
2023-04-17T22:49:11.579Z,96722.91
2023-04-17T22:58:14.383Z,96724.47
2023-04-17T23:00:50.306Z,96714.16
2023-04-17T23:03:47.627Z,96721.88
2023-04-17T23:06:23.948Z,96717.19
2023-04-17T23:09:12.638Z,96724.97
2023-04-17T23:11:58.249Z,96723.28
2023-04-17T23:14:48.140Z,96721.63
2023-04-17T23:17:43.526Z,96720.97
2023-04-17T23:23:02.877Z,96709.75
2023-04-17T23:25:39.415Z,96718.56
2023-04-17T23:28:53.700Z,96712.75
2023-04-17T23:31:38.417Z,96708.13
2023-04-17T23:34:15.910Z,96712.69
2023-04-17T23:36:58.112Z,96715.06
2023-04-17T23:39:39.688Z,96713.47
2023-04-17T23:42:34.190Z,96710.78
2023-04-17T23:45:15.263Z,96715.03
2023-04-17T23:48:12.979Z,96718.13
2023-04-17T23:51:07.614Z,96713.59
2023-04-17T23:53:34.835Z,96712.53
2023-04-17T23:56:10.101Z,96713.88
